DAUO/ELU METAR and TAF weather

Enter ICAO airport designator
Station Type Date Time Source
DAUO METAR 2019/04/23 00:00 UTC NOAA

DAUO 230000Z 25003KT 8000 SCT040 SCT200 19/08 Q1004


Station Type Date Time Source
DAUO Decoded METAR 2019/04/23 00:00 UTC NOAA

El Oued, Algeria (DAUO) 33-30N 006-07E 63M
Apr 22, 2019 - 08:00 PM EDT / 2019.04.23 0000 UTC
Wind: from the WSW (250 degrees) at 3 MPH (3 KT):0
Visibility: 4 mile(s):0
Sky conditions: partly cloudy
Temperature: 66 F (19 C)
Dew Point: 46 F (8 C)
Relative Humidity: 48%
Pressure (altimeter): 29.65 in. Hg (1004 hPa)
ob: DAUO 230000Z 25003KT 8000 SCT040 SCT200 19/08 Q1004
cycle: 0

Station Type Date Time Source
DAUO TAF 2017/11/09 18:03 UTC NOAA

TAF DAUO 091700Z 0918/1009 28010KT 9999 SCT033 SCT100 PROB30
TEMPO 0918/0924 28015G25KT 5000 -TSRA FEW036CB

Example: see airport list